Time;durP1;ratioP1;P1;durP2;ratioP2;P2;SDS_P1;SDS_P2;PMS_P1;PMS_P2;Temp;Humidity;BMP_temperature;BMP_pressure;BME280_temperature;BME280_humidity;BME280_pressure;Samples;Min_cycle;Max_cycle;Signal;HPM_P1;HPM_P2
2023/07/12 00:00:27;;;;;;;6.93;2.53;;;21.30;79.70;;;20.77;100.00;95976.06;4969631;28;20552;-70
2023/07/12 00:02:54;;;;;;;7.55;2.42;;;21.30;79.40;;;20.73;100.00;95972.28;4987989;28;20145;-71
2023/07/12 00:05:20;;;;;;;6.82;2.55;;;21.30;79.80;;;20.71;100.00;95974.41;4969644;28;20110;-71
2023/07/12 00:07:46;;;;;;;6.35;2.55;;;21.10;79.80;;;20.73;100.00;95966.94;4969114;28;20506;-71
2023/07/12 00:10:21;;;;;;;7.85;2.83;;;21.30;80.10;;;20.75;100.00;95970.16;4995633;28;20465;-71
2023/07/12 00:12:47;;;;;;;9.43;2.60;;;21.20;80.20;;;20.71;100.00;95958.38;4983098;28;20057;-71
2023/07/12 00:15:26;;;;;;;7.63;2.95;;;21.10;79.80;;;20.63;100.00;95964.19;4983400;28;20034;-70
2023/07/12 00:17:52;;;;;;;5.70;2.80;;;21.10;80.10;;;20.65;100.00;95959.41;4979215;28;20387;-70
2023/07/12 00:20:34;;;;;;;10.27;2.53;;;21.20;80.80;;;20.63;100.00;95947.34;4969627;28;20552;-71
2023/07/12 00:23:00;;;;;;;6.93;2.63;;;21.20;80.50;;;20.62;100.00;95954.56;4965588;28;20042;-70
2023/07/12 00:25:29;;;;;;;6.95;2.60;;;21.20;80.10;;;20.60;100.00;95961.25;4981625;28;20030;-70
2023/07/12 00:27:55;;;;;;;8.05;2.70;;;21.10;80.20;;;20.59;100.00;95976.44;4970086;28;20030;-70
2023/07/12 00:30:33;;;;;;;8.75;2.45;;;21.10;80.90;;;20.60;100.00;95994.13;4982197;28;20053;-71
2023/07/12 00:33:03;;;;;;;4.07;2.50;;;21.10;80.90;;;20.63;100.00;95988.25;4968125;28;20042;-70
2023/07/12 00:35:30;;;;;;;4.97;2.50;;;21.10;81.20;;;20.64;100.00;95999.75;4981987;28;20033;-71
2023/07/12 00:37:58;;;;;;;10.40;3.08;;;21.10;81.30;;;20.63;100.00;96004.28;4982873;28;20389;-71
2023/07/12 00:41:09;;;;;;;5.72;2.50;;;21.10;81.40;;;20.67;100.00;95983.19;4984483;28;20049;-71
2023/07/12 00:44:09;;;;;;;7.13;3.05;;;21.20;80.90;;;20.59;100.00;95970.28;4972227;28;20568;-70
2023/07/12 00:46:57;;;;;;;7.30;2.53;;;21.10;81.00;;;20.52;100.00;95959.00;5000210;28;20031;-71
2023/07/12 00:49:23;;;;;;;9.02;2.70;;;21.10;80.90;;;20.50;100.00;95961.94;4986349;28;20032;-69
2023/07/12 00:51:52;;;;;;;6.90;2.78;;;21.10;81.10;;;20.48;100.00;95954.19;4983987;28;20060;-71
2023/07/12 00:54:20;;;;;;;6.35;2.53;;;21.00;81.00;;;20.44;100.00;95958.44;4979545;28;20077;-71
2023/07/12 00:56:46;;;;;;;7.85;2.50;;;20.90;81.00;;;20.41;100.00;95948.25;4972810;28;20029;-72
2023/07/12 00:59:26;;;;;;;5.70;2.67;;;21.00;81.10;;;20.45;100.00;95941.34;4984359;28;20440;-71
2023/07/12 01:01:56;;;;;;;7.43;2.73;;;21.10;81.40;;;20.47;100.00;95898.31;4969603;28;20034;-71
2023/07/12 01:04:36;;;;;;;5.17;2.53;;;21.20;81.70;;;20.51;100.00;95923.47;4988703;28;20316;-71
2023/07/12 01:07:03;;;;;;;6.63;2.70;;;21.20;81.90;;;20.55;100.00;95942.47;4976152;28;20273;-70
2023/07/12 01:09:28;;;;;;;8.57;2.45;;;21.20;81.80;;;20.56;100.00;95944.06;4970251;28;20077;-71
2023/07/12 01:11:54;;;;;;;4.55;2.10;;;21.20;81.30;;;20.59;100.00;95954.25;4970131;28;20177;-72
2023/07/12 01:14:20;;;;;;;6.82;3.08;;;21.30;81.50;;;20.59;100.00;95944.38;4970641;28;20053;-71
2023/07/12 01:16:53;;;;;;;6.03;2.80;;;21.30;80.90;;;20.60;100.00;95940.66;5002666;28;20494;-72
2023/07/12 01:19:18;;;;;;;7.90;2.90;;;21.30;80.50;;;20.62;100.00;95949.22;4984613;28;20034;-69
2023/07/12 01:21:50;;;;;;;8.02;2.83;;;21.30;81.00;;;20.64;100.00;95957.78;4980787;28;20391;-69
2023/07/12 01:24:16;;;;;;;5.95;2.67;;;21.40;81.10;;;20.63;100.00;95958.84;4997957;28;20045;-71
2023/07/12 01:26:44;;;;;;;4.43;2.22;;;21.40;81.10;;;20.61;100.00;95952.97;4960481;28;20393;-71
2023/07/12 01:29:10;;;;;;;6.50;2.90;;;21.30;81.30;;;20.63;100.00;95956.19;5001690;28;20173;-71
2023/07/12 01:31:36;;;;;;;6.35;2.50;;;21.30;80.80;;;20.62;100.00;95957.25;4954223;28;20793;-71
2023/07/12 01:34:02;;;;;;;4.30;2.50;;;21.30;80.80;;;20.55;100.00;95931.78;4985021;28;20030;-71
2023/07/12 01:36:29;;;;;;;6.88;2.50;;;21.10;80.80;;;20.53;100.00;95918.69;4955504;28;20038;-71
2023/07/12 01:38:56;;;;;;;5.78;2.50;;;21.30;81.30;;;20.55;100.00;95884.47;4997334;28;20459;-71
2023/07/12 01:41:22;;;;;;;5.90;2.53;;;21.30;80.70;;;20.58;100.00;95867.13;4960255;28;20038;-71
2023/07/12 01:43:48;;;;;;;5.18;2.90;;;21.30;81.20;;;20.56;100.00;95859.38;4980979;28;20042;-70
2023/07/12 01:46:13;;;;;;;6.18;2.42;;;21.30;80.40;;;20.57;100.00;95842.28;4981087;28;20069;-70
2023/07/12 01:48:39;;;;;;;5.00;2.70;;;21.30;81.10;;;20.55;100.00;95807.00;4981397;28;20121;-71
2023/07/12 01:51:05;;;;;;;5.78;2.58;;;21.30;80.90;;;20.53;100.00;95817.13;5002357;28;20038;-71
2023/07/12 01:53:35;;;;;;;6.40;2.80;;;21.30;80.80;;;20.55;100.00;95825.69;4970931;28;20086;-72
2023/07/12 01:56:01;;;;;;;5.68;2.72;;;21.30;80.80;;;20.55;100.00;95811.53;4997266;28;20568;-71
2023/07/12 01:58:27;;;;;;;7.00;3.08;;;21.30;81.30;;;20.49;100.00;95822.19;4954674;28;20030;-71
2023/07/12 02:00:53;;;;;;;6.20;2.88;;;21.20;80.90;;;20.48;100.00;95825.94;4979698;28;20506;-71
2023/07/12 02:03:18;;;;;;;4.25;2.50;;;21.20;80.80;;;20.48;100.00;95838.47;4967173;28;20038;-72
2023/07/12 02:05:44;;;;;;;6.45;3.03;;;21.20;81.40;;;20.51;100.00;95826.47;4983330;28;20099;-71
2023/07/12 02:08:10;;;;;;;6.40;3.45;;;21.20;81.20;;;20.47;100.00;95818.16;4968670;28;20037;-70
2023/07/12 02:10:36;;;;;;;4.72;2.97;;;21.10;81.00;;;20.49;100.00;95821.38;4975948;28;20045;-71
2023/07/12 02:13:02;;;;;;;4.28;3.05;;;21.30;81.20;;;20.51;100.00;95829.94;4984585;28;20102;-71
2023/07/12 02:15:28;;;;;;;8.05;2.88;;;21.20;81.40;;;20.48;100.00;95830.47;4993664;28;20053;-71
2023/07/12 02:17:54;;;;;;;5.32;2.97;;;21.20;81.50;;;20.48;100.00;95830.47;4990058;28;20088;-71
2023/07/12 02:20:20;;;;;;;8.55;3.22;;;21.20;81.60;;;20.46;100.00;95824.59;4993737;28;20038;-70
2023/07/12 02:22:47;;;;;;;5.00;2.85;;;21.10;81.70;;;20.45;100.00;95815.75;4978917;28;20494;-67
2023/07/12 02:25:13;;;;;;;7.68;3.22;;;21.10;81.90;;;20.46;100.00;95808.53;5000996;28;20490;-68
2023/07/12 02:27:40;;;;;;;6.00;2.90;;;21.20;81.90;;;20.48;100.00;95809.09;5005587;28;20508;-69
2023/07/12 02:30:09;;;;;;;4.13;2.80;;;21.10;81.90;;;20.46;100.00;95795.19;4960790;28;20042;-68
2023/07/12 02:32:35;;;;;;;7.55;2.60;;;21.20;81.90;;;20.43;100.00;95774.34;4973832;28;20565;-68
2023/07/12 02:35:00;;;;;;;6.22;2.72;;;21.10;81.40;;;20.36;100.00;95742.47;4970829;28;20070;-68
2023/07/12 02:37:26;;;;;;;6.65;3.00;;;21.10;81.40;;;20.36;100.00;95721.09;4963839;28;20085;-66
2023/07/12 02:39:52;;;;;;;6.30;2.80;;;21.10;81.70;;;20.38;100.00;95726.19;5004686;28;20038;-68
2023/07/12 02:42:17;;;;;;;6.50;3.05;;;21.10;82.00;;;20.41;100.00;95731.06;4985083;28;20124;-68
2023/07/12 02:44:43;;;;;;;8.57;3.22;;;21.10;81.90;;;20.36;100.00;95714.94;5000155;28;20038;-70
2023/07/12 02:47:10;;;;;;;10.48;3.35;;;21.10;81.60;;;20.38;100.00;95747.56;5002351;28;20070;-66
2023/07/12 02:49:38;;;;;;;8.18;3.10;;;21.20;81.40;;;20.37;100.00;95770.00;4985998;28;20046;-69
2023/07/12 02:52:06;;;;;;;6.75;3.40;;;21.10;81.50;;;20.36;100.00;95749.66;4967132;28;20048;-68
2023/07/12 02:54:31;;;;;;;13.98;10.82;;;21.10;81.70;;;20.34;100.00;95727.75;4952932;28;20053;-68
2023/07/12 02:56:58;;;;;;;12.45;9.60;;;21.10;81.70;;;20.32;100.00;95713.84;4952151;28;20772;-69
2023/07/12 02:59:24;;;;;;;9.13;3.78;;;21.10;81.80;;;20.30;100.00;95705.31;5004292;28;20030;-68
2023/07/12 03:01:50;;;;;;;13.13;3.65;;;21.10;81.50;;;20.29;100.00;95703.69;4972295;28;20363;-68
2023/07/12 03:04:16;;;;;;;9.95;5.18;;;21.10;81.80;;;20.29;100.00;95699.16;4970122;28;20216;-67
2023/07/12 03:06:41;;;;;;;14.05;9.45;;;21.10;82.00;;;20.29;100.00;95699.16;4983752;28;20117;-67
2023/07/12 03:09:10;;;;;;;10.45;6.18;;;21.10;81.80;;;20.26;100.00;95682.84;4973377;28;20041;-68
2023/07/12 03:11:36;;;;;;;8.70;3.55;;;21.10;82.10;;;20.24;100.00;95679.63;4970800;28;20414;-68
2023/07/12 03:14:02;;;;;;;10.38;3.78;;;21.10;81.90;;;20.18;100.00;95663.59;4972188;28;20075;-69
2023/07/12 03:16:27;;;;;;;6.85;3.70;;;21.00;81.60;;;20.12;100.00;95661.94;5000749;28;20030;-69
2023/07/12 03:18:53;;;;;;;7.97;3.72;;;20.90;81.90;;;20.09;100.00;95667.81;4975109;28;20111;-68
2023/07/12 03:21:19;;;;;;;7.18;4.25;;;20.90;82.00;;;20.09;100.00;95661.66;4987607;28;20700;-67
2023/07/12 03:23:45;;;;;;;14.85;9.55;;;20.80;82.20;;;20.05;100.00;95668.59;4997125;28;20097;-68
2023/07/12 03:26:11;;;;;;;11.02;7.25;;;20.80;82.50;;;20.06;100.00;95664.84;4966594;28;20453;-68
2023/07/12 03:28:37;;;;;;;8.00;4.38;;;20.90;82.40;;;20.09;100.00;95670.47;4983606;28;20026;-68
2023/07/12 03:31:10;;;;;;;8.88;4.10;;;20.90;82.20;;;20.13;100.00;95668.09;4984073;28;20047;-68
2023/07/12 03:33:36;;;;;;;10.23;4.57;;;21.00;82.30;;;20.14;100.00;95665.19;4973374;28;20517;-68
2023/07/12 03:36:02;;;;;;;11.65;7.70;;;21.00;82.30;;;20.14;100.00;95657.19;4965948;28;20121;-69
2023/07/12 03:38:29;;;;;;;8.52;4.82;;;20.90;82.40;;;20.13;100.00;95649.41;4972864;28;20033;-68
2023/07/12 03:40:55;;;;;;;6.55;4.03;;;20.90;82.30;;;20.10;100.00;95653.38;4976969;28;20062;-68
2023/07/12 03:43:22;;;;;;;7.07;4.00;;;20.90;82.10;;;20.10;100.00;95637.38;4976333;28;20035;-68
2023/07/12 03:45:48;;;;;;;7.82;3.63;;;21.00;82.30;;;20.11;100.00;95632.84;5000590;28;20127;-69
2023/07/12 03:48:14;;;;;;;8.38;3.72;;;21.00;82.00;;;20.11;100.00;95628.28;4993007;28;20121;-71
2023/07/12 03:50:43;;;;;;;23.38;17.75;;;21.00;82.40;;;20.11;100.00;95622.16;4984968;28;20054;-69
2023/07/12 03:53:09;;;;;;;13.70;10.18;;;21.00;82.50;;;20.10;100.00;95621.34;4972614;28;20548;-68
2023/07/12 03:55:46;;;;;;;6.60;5.00;;;21.00;82.60;;;20.12;100.00;95616.56;4984583;28;20121;-68
2023/07/12 03:58:15;;;;;;;12.40;7.25;;;21.10;82.40;;;20.09;100.00;95619.75;4981575;28;20056;-67
2023/07/12 04:00:45;;;;;;;10.00;4.60;;;21.00;82.30;;;20.11;100.00;95633.63;4986692;28;20034;-66
2023/07/12 04:03:11;;;;;;;10.50;4.28;;;21.00;82.40;;;20.11;100.00;95633.63;4981994;28;20356;-67
2023/07/12 04:05:38;;;;;;;6.57;4.00;;;21.00;82.70;;;20.10;100.00;95634.69;4970149;28;20482;-67
2023/07/12 04:08:04;;;;;;;8.45;3.95;;;21.00;82.50;;;20.10;100.00;95631.22;4981101;28;20071;-67
2023/07/12 04:10:30;;;;;;;11.95;4.53;;;21.00;82.70;;;20.11;100.00;95636.31;5001382;28;20038;-68
2023/07/12 04:12:56;;;;;;;9.07;4.00;;;21.10;82.60;;;20.11;100.00;95638.97;4983021;28;20109;-68
2023/07/12 04:15:22;;;;;;;10.05;4.05;;;21.00;82.40;;;20.12;100.00;95645.94;4971542;28;20034;-68
2023/07/12 04:17:48;;;;;;;7.80;4.30;;;21.10;82.60;;;20.16;100.00;95651.56;5004538;28;20125;-68
2023/07/12 04:20:13;;;;;;;7.72;3.90;;;21.10;82.40;;;20.18;100.00;95644.91;4984095;28;20043;-67
2023/07/12 04:22:39;;;;;;;6.88;3.75;;;21.10;82.40;;;20.22;100.00;95644.38;4982449;28;20030;-68
2023/07/12 04:25:07;;;;;;;6.50;4.13;;;21.10;82.60;;;20.25;100.00;95641.19;5003780;28;20038;-68
2023/07/12 04:27:37;;;;;;;6.53;4.00;;;21.30;82.40;;;20.27;100.00;95626.50;4986519;28;20295;-68
2023/07/12 04:30:05;;;;;;;9.23;3.95;;;21.20;81.90;;;20.29;100.00;95645.75;4985912;28;20087;-68
2023/07/12 04:32:30;;;;;;;6.97;3.50;;;21.20;82.30;;;20.30;100.00;95641.19;4976098;28;20038;-68
2023/07/12 04:34:59;;;;;;;8.65;4.05;;;21.30;82.20;;;20.33;100.00;95643.34;4973005;28;20080;-67
2023/07/12 04:37:25;;;;;;;10.40;4.13;;;21.40;82.20;;;20.34;100.00;95636.94;4981513;28;20356;-68
2023/07/12 04:39:51;;;;;;;7.43;3.92;;;21.40;82.20;;;20.33;100.00;95630.00;5000720;28;20034;-68
2023/07/12 04:42:17;;;;;;;6.63;3.95;;;21.30;82.10;;;20.37;100.00;95636.44;4982004;28;20125;-68
2023/07/12 04:44:42;;;;;;;6.28;4.13;;;21.40;82.10;;;20.38;100.00;95638.03;4981230;28;20408;-67
2023/07/12 04:47:08;;;;;;;6.45;3.90;;;21.40;81.90;;;20.42;100.00;95639.97;4987657;28;20068;-68
2023/07/12 04:49:34;;;;;;;6.70;4.20;;;21.50;82.00;;;20.45;100.00;95639.44;4973729;28;20055;-68
2023/07/12 04:52:00;;;;;;;5.93;4.03;;;21.50;82.00;;;20.48;100.00;95622.06;5004091;28;20053;-68
2023/07/12 04:54:25;;;;;;;7.05;3.92;;;21.60;81.90;;;20.51;100.00;95618.06;4998434;28;20064;-68
2023/07/12 04:56:51;;;;;;;5.38;3.83;;;21.60;82.00;;;20.54;100.00;95610.31;4974832;28;20030;-68
2023/07/12 04:59:18;;;;;;;6.82;3.70;;;21.70;81.70;;;20.58;100.00;95614.06;4988808;28;20528;-68
2023/07/12 05:01:45;;;;;;;6.65;3.25;;;21.60;80.90;;;20.60;100.00;95614.63;4972004;28;20053;-68
2023/07/12 05:04:11;;;;;;;6.40;3.75;;;21.70;80.30;;;20.65;100.00;95616.50;5000957;28;20034;-67
2023/07/12 05:06:37;;;;;;;11.05;3.58;;;21.70;80.00;;;20.67;100.00;95617.03;4978807;28;20088;-68
2023/07/12 05:09:03;;;;;;;6.20;3.80;;;21.80;80.60;;;20.71;100.00;95626.13;4981898;28;20525;-68
2023/07/12 05:11:29;;;;;;;10.13;3.78;;;21.80;80.90;;;20.73;100.00;95632.81;4964433;28;20510;-67
2023/07/12 05:13:55;;;;;;;13.45;3.83;;;21.80;80.70;;;20.77;100.00;95636.56;4983320;28;20069;-68
2023/07/12 05:16:20;;;;;;;8.00;3.90;;;22.00;80.50;;;20.84;100.00;95631.00;5004408;28;20123;-67
2023/07/12 05:18:46;;;;;;;10.55;3.72;;;22.10;80.50;;;20.90;100.00;95634.47;4981475;28;20043;-67
2023/07/12 05:21:12;;;;;;;7.68;3.75;;;22.10;80.20;;;20.90;100.00;95626.44;4968643;28;20069;-67
2023/07/12 05:23:39;;;;;;;7.28;3.90;;;22.10;79.20;;;20.96;100.00;95622.69;4970950;28;20077;-68
2023/07/12 05:26:05;;;;;;;6.63;3.97;;;22.20;79.30;;;20.98;100.00;95621.38;4972684;28;20525;-68
2023/07/12 05:28:31;;;;;;;14.93;8.65;;;22.20;79.00;;;21.05;100.00;95631.81;4986489;28;20038;-69
2023/07/12 05:30:57;;;;;;;11.32;5.35;;;22.30;79.10;;;21.13;100.00;95628.59;4968382;28;20124;-68
2023/07/12 05:33:22;;;;;;;9.85;4.57;;;22.50;79.20;;;21.23;100.00;95644.66;4977953;28;20066;-67
2023/07/12 05:35:48;;;;;;;5.50;4.18;;;22.50;78.30;;;21.30;100.00;95641.75;5002575;28;20034;-68
2023/07/12 05:38:14;;;;;;;8.10;4.38;;;22.60;78.10;;;21.38;100.00;95642.00;4982279;28;20573;-68
2023/07/12 05:40:40;;;;;;;9.23;4.43;;;22.70;78.40;;;21.49;100.00;95639.31;4979540;28;20506;-68
2023/07/12 05:43:06;;;;;;;7.80;3.95;;;22.80;77.60;;;21.53;100.00;95643.09;4960380;28;20062;-68
2023/07/12 05:45:31;;;;;;;8.70;4.32;;;22.80;77.40;;;21.59;100.00;95647.34;4999478;28;20129;-68
2023/07/12 05:47:57;;;;;;;6.43;4.10;;;22.80;77.40;;;21.66;100.00;95646.00;4999070;28;20075;-68
2023/07/12 05:50:23;;;;;;;10.13;4.38;;;22.90;77.40;;;21.70;100.00;95659.66;5007851;28;20620;-68
2023/07/12 05:52:49;;;;;;;11.65;4.45;;;22.90;77.00;;;21.77;100.00;95659.38;5005210;28;20536;-68
2023/07/12 05:55:17;;;;;;;8.75;4.03;;;23.10;76.90;;;21.82;100.00;95664.72;4987391;28;20057;-68
2023/07/12 05:57:44;;;;;;;7.82;4.10;;;23.10;76.90;;;21.84;100.00;95682.13;4991225;28;20278;-69
2023/07/12 06:00:11;;;;;;;7.32;3.60;;;23.10;77.10;;;21.87;100.00;95686.94;4991497;28;20441;-68
2023/07/12 06:02:38;;;;;;;6.75;4.20;;;23.10;76.80;;;21.85;100.00;95689.09;4982164;28;20040;-67
2023/07/12 06:05:05;;;;;;;8.85;4.50;;;23.10;77.00;;;21.89;100.00;95714.25;4976094;28;20029;-68
2023/07/12 06:07:31;;;;;;;8.75;4.70;;;23.00;76.90;;;21.89;100.00;95714.25;4976162;28;20065;-67
2023/07/12 06:09:57;;;;;;;9.73;4.97;;;23.00;77.40;;;21.88;100.00;95719.88;5009376;28;20461;-67
2023/07/12 06:12:23;;;;;;;11.38;5.13;;;23.00;77.50;;;21.86;100.00;95722.03;4970958;28;20082;-68
2023/07/12 06:14:49;;;;;;;8.10;4.05;;;22.90;77.90;;;21.83;100.00;95726.03;4987909;28;20109;-68
2023/07/12 06:17:15;;;;;;;8.70;4.45;;;22.90;78.40;;;21.79;100.00;95711.59;5010035;28;20062;-67
2023/07/12 06:19:40;;;;;;;10.63;4.35;;;22.70;78.20;;;21.71;100.00;95725.50;5002302;28;20054;-68
2023/07/12 06:22:06;;;;;;;11.32;4.30;;;22.60;78.20;;;21.64;100.00;95708.91;4988180;28;20054;-67
2023/07/12 06:24:32;;;;;;;7.05;4.25;;;22.60;77.90;;;21.59;100.00;95719.63;4987525;28;20316;-68
2023/07/12 06:26:58;;;;;;;6.97;3.85;;;22.50;78.60;;;21.52;100.00;95700.34;4990151;28;20038;-68
2023/07/12 06:29:25;;;;;;;7.47;4.07;;;22.40;78.90;;;21.41;100.00;95707.56;4987606;28;20111;-69
2023/07/12 06:31:51;;;;;;;7.97;4.70;;;22.20;79.40;;;21.35;100.00;95709.44;4988146;28;20123;-68
2023/07/12 06:34:17;;;;;;;10.50;4.28;;;22.20;79.70;;;21.28;100.00;95729.50;4994847;28;20531;-68
2023/07/12 06:36:42;;;;;;;6.28;3.85;;;22.10;79.60;;;21.25;100.00;95776.28;4984853;28;20087;-69
2023/07/12 06:39:08;;;;;;;9.30;4.78;;;22.00;80.40;;;21.17;100.00;95781.31;5003851;28;20461;-68
2023/07/12 06:41:34;;;;;;;9.25;4.43;;;21.80;81.10;;;21.10;100.00;95755.66;5001674;28;20042;-68
2023/07/12 06:44:00;;;;;;;7.10;3.92;;;21.90;81.30;;;21.07;100.00;95771.41;4985773;28;20030;-68
2023/07/12 06:46:25;;;;;;;9.05;4.43;;;21.70;80.50;;;21.02;100.00;95782.88;4989992;28;20077;-68
2023/07/12 06:48:51;;;;;;;7.50;3.40;;;21.70;80.20;;;20.93;100.00;95763.06;4985226;28;20125;-68
2023/07/12 06:51:17;;;;;;;6.60;3.10;;;21.60;79.70;;;20.89;100.00;95779.91;4970548;28;20598;-68
2023/07/12 06:53:42;;;;;;;8.82;2.92;;;21.70;79.30;;;20.85;100.00;95776.16;4983596;28;20066;-68
2023/07/12 06:56:08;;;;;;;5.80;2.95;;;21.60;79.10;;;20.76;100.00;95741.88;4990128;28;20132;-68
2023/07/12 06:58:34;;;;;;;7.47;3.22;;;21.60;78.70;;;20.71;100.00;95749.88;5003167;28;20532;-68
2023/07/12 07:01:00;;;;;;;7.30;3.10;;;21.50;78.70;;;20.65;100.00;95777.66;4983027;28;20127;-68
2023/07/12 07:03:26;;;;;;;9.57;3.30;;;21.40;79.50;;;20.62;100.00;95794.22;4991320;28;20510;-68
2023/07/12 07:05:51;;;;;;;8.75;3.50;;;21.40;80.00;;;20.62;100.00;95804.91;4983643;28;20041;-70
2023/07/12 07:08:18;;;;;;;9.20;6.13;;;21.40;78.80;;;20.63;100.00;95795.81;4989995;28;20569;-68
2023/07/12 07:10:48;;;;;;;8.52;4.95;;;21.50;79.10;;;20.64;100.00;95818.81;4997990;28;20058;-68
2023/07/12 07:13:14;;;;;;;8.50;2.90;;;21.60;79.10;;;20.64;100.00;95815.34;4973179;28;20073;-68
2023/07/12 07:15:40;;;;;;;5.57;2.92;;;21.60;78.40;;;20.64;100.00;95818.00;4998857;28;20312;-68
2023/07/12 07:18:07;;;;;;;4.75;2.42;;;21.60;78.20;;;20.65;100.00;95812.41;5002166;28;20509;-68
2023/07/12 07:20:33;;;;;;;7.43;3.03;;;21.60;76.80;;;20.70;100.00;95796.38;4982358;28;20033;-68
2023/07/12 07:22:59;;;;;;;7.28;2.78;;;21.70;76.60;;;20.74;100.00;95808.16;4984969;28;20141;-69
2023/07/12 07:25:28;;;;;;;4.18;2.42;;;21.80;76.30;;;20.78;100.00;95803.09;4984058;28;20042;-68
2023/07/12 07:27:56;;;;;;;4.72;2.40;;;21.90;76.00;;;20.83;100.00;95803.16;4987361;28;20510;-68
2023/07/12 07:30:22;;;;;;;7.57;4.03;;;21.90;74.80;;;20.92;100.00;95824.81;5001159;28;20042;-69
2023/07/12 07:32:47;;;;;;;4.93;2.70;;;22.00;75.20;;;20.97;100.00;95822.16;4982957;28;20537;-68
2023/07/12 07:35:13;;;;;;;9.02;2.83;;;22.10;74.10;;;21.07;100.00;95822.22;4972268;28;20567;-68
2023/07/12 07:37:40;;;;;;;4.85;2.28;;;22.30;74.50;;;21.19;100.00;95833.50;4987034;28;20109;-68
2023/07/12 07:40:07;;;;;;;4.78;2.30;;;22.50;74.50;;;21.29;100.00;95832.78;4999885;28;20681;-68
2023/07/12 07:42:33;;;;;;;5.80;2.30;;;22.60;73.80;;;21.42;100.00;95831.47;4988100;28;20033;-69
2023/07/12 07:45:01;;;;;;;7.05;2.35;;;22.80;73.50;;;21.47;100.00;95820.75;4957179;28;20042;-68
2023/07/12 07:47:27;;;;;;;9.27;2.40;;;22.70;73.10;;;21.53;100.00;95820.53;4989032;28;20526;-69
2023/07/12 07:49:53;;;;;;;4.68;2.33;;;22.80;72.60;;;21.61;100.00;95811.97;4967532;28;20085;-69
2023/07/12 07:52:19;;;;;;;5.22;2.25;;;22.80;72.10;;;21.70;100.00;95822.94;4986428;28;20058;-69
2023/07/12 07:54:44;;;;;;;7.28;2.20;;;23.10;72.10;;;21.79;100.00;95823.25;4972679;28;20116;-69
2023/07/12 07:57:10;;;;;;;6.90;2.00;;;23.20;71.10;;;21.89;100.00;95818.69;4960625;28;20115;-68
2023/07/12 07:59:36;;;;;;;9.88;2.10;;;23.40;71.10;;;22.00;100.00;95809.59;4983597;28;20486;-69
2023/07/12 08:02:02;;;;;;;4.13;1.58;;;23.50;69.90;;;22.09;100.00;95801.84;4980550;28;20064;-70
2023/07/12 08:04:30;;;;;;;5.45;2.13;;;23.60;69.40;;;22.23;100.00;95804.78;4968629;28;20043;-68
2023/07/12 08:06:58;;;;;;;6.47;1.90;;;23.70;68.90;;;22.29;99.22;95801.03;4957305;28;20149;-70
2023/07/12 08:09:24;;;;;;;8.52;2.47;;;23.90;68.50;;;22.48;98.36;95809.31;4969207;28;20034;-69
2023/07/12 08:11:50;;;;;;;5.78;1.75;;;24.20;67.90;;;22.61;97.76;95809.53;4958596;28;20038;-69
2023/07/12 08:14:18;;;;;;;5.25;1.60;;;24.30;67.10;;;22.73;96.02;95811.13;4952811;28;20510;-69
2023/07/12 08:16:43;;;;;;;3.35;1.80;;;24.40;66.70;;;22.87;95.97;95809.53;5003833;28;20045;-69
2023/07/12 08:19:12;;;;;;;6.10;1.95;;;24.60;66.90;;;23.05;93.36;95803.53;4963361;28;20042;-69
2023/07/12 08:21:38;;;;;;;4.28;1.88;;;24.80;65.70;;;23.16;93.69;95813.16;4956481;28;20073;-69
2023/07/12 08:24:04;;;;;;;7.28;2.03;;;24.80;65.00;;;23.30;92.79;95810.66;4958321;28;20042;-71
2023/07/12 08:26:30;;;;;;;7.60;2.03;;;25.10;64.00;;;23.36;91.82;95808.75;4975426;28;20123;-71
2023/07/12 08:28:56;;;;;;;4.47;1.55;;;25.10;63.40;;;23.38;90.74;95811.97;4943422;28;20532;-70
2023/07/12 08:31:22;;;;;;;3.53;1.70;;;25.00;63.90;;;23.52;89.78;95791.47;4953027;28;20030;-70
2023/07/12 08:33:49;;;;;;;3.65;1.45;;;25.30;63.80;;;23.68;87.98;95794.91;4987133;28;20505;-69
2023/07/12 08:36:16;;;;;;;5.72;1.85;;;25.40;62.00;;;23.80;87.79;95793.47;4984487;28;20045;-69
2023/07/12 08:38:43;;;;;;;11.75;2.13;;;25.60;61.90;;;23.94;87.34;95790.13;4955355;28;20153;-69
2023/07/12 08:41:15;;;;;;;6.07;1.50;;;25.90;61.70;;;24.13;86.89;95793.75;4957113;28;20141;-69
2023/07/12 08:43:41;;;;;;;6.30;1.60;;;26.20;62.30;;;24.34;87.32;95789.81;4954929;28;20042;-70
2023/07/12 08:46:16;;;;;;;4.75;1.58;;;26.40;61.90;;;24.62;85.84;95787.38;4962316;28;20085;-71
2023/07/12 08:48:42;;;;;;;4.22;1.80;;;26.80;61.30;;;24.82;85.44;95792.53;4970340;28;20034;-69
2023/07/12 08:51:17;;;;;;;2.97;1.33;;;27.00;59.20;;;25.03;80.88;95775.09;4973281;28;20030;-70
2023/07/12 08:53:43;;;;;;;3.95;1.60;;;27.30;58.20;;;25.25;81.93;95782.63;4971720;28;20034;-70
2023/07/12 08:56:13;;;;;;;6.85;1.50;;;27.40;57.20;;;25.50;78.13;95777.97;4979487;28;20134;-70
2023/07/12 08:58:44;;;;;;;;;;;27.90;55.30;;;25.72;76.77;95772.03;4971878;28;20037;-70
2023/07/12 09:01:33;;;;;;;2.80;1.30;;;28.10;55.50;;;25.91;74.72;95780.91;4997419;28;19921;-70
2023/07/12 09:03:59;;;;;;;2.97;1.48;;;28.30;54.70;;;26.17;77.67;95782.09;4959297;28;20623;-71
2023/07/12 09:06:24;;;;;;;4.32;1.30;;;28.70;53.90;;;26.48;75.80;95779.69;4985235;28;20038;-70
2023/07/12 09:08:53;;;;;;;5.95;1.50;;;29.20;51.70;;;26.77;74.80;95775.91;4955417;28;20034;-70
2023/07/12 09:11:27;;;;;;;3.38;1.60;;;29.40;51.60;;;27.08;71.78;95768.81;4971610;28;20290;-70
2023/07/12 09:13:54;;;;;;;4.35;1.48;;;29.80;51.70;;;27.43;72.14;95772.69;5000929;28;20044;-71
2023/07/12 09:16:26;;;;;;;4.53;1.33;;;30.00;50.50;;;27.65;69.45;95763.03;4970110;28;20038;-70
2023/07/12 09:18:54;;;;;;;2.63;1.40;;;30.30;50.10;;;27.91;70.08;95766.75;4982828;28;20510;-70
2023/07/12 09:21:23;;;;;;;4.35;1.48;;;30.50;50.00;;;28.17;69.29;95758.00;4969975;28;20073;-70
2023/07/12 09:23:51;;;;;;;3.73;1.47;;;30.80;49.20;;;28.43;67.11;95760.88;4981560;28;20037;-70
2023/07/12 09:26:22;;;;;;;6.43;1.40;;;31.00;47.00;;;28.71;64.07;95746.03;4969872;28;20278;-70
2023/07/12 09:28:49;;;;;;;3.58;1.30;;;31.50;46.50;;;29.00;64.49;95752.84;4981972;28;20041;-70
2023/07/12 09:31:23;;;;;;;6.75;1.25;;;31.70;44.60;;;29.26;61.34;95735.53;4978158;28;20109;-71
2023/07/12 09:33:58;;;;;;;3.15;1.25;;;32.00;45.40;;;29.52;61.57;95742.91;4962798;28;20038;-71
2023/07/12 09:36:24;;;;;;;4.68;1.20;;;32.30;45.70;;;29.69;62.82;95748.34;4995368;28;20033;-70
2023/07/12 09:38:52;;;;;;;2.10;1.20;;;32.50;44.40;;;29.93;60.87;95736.22;4981132;28;20034;-71
2023/07/12 09:41:25;;;;;;;4.70;1.40;;;32.60;42.90;;;30.10;57.50;95725.34;4983112;28;20045;-70
2023/07/12 09:43:55;;;;;;;2.33;1.17;;;32.90;43.50;;;30.29;57.19;95711.41;4980361;28;20042;-69
2023/07/12 09:46:40;;;;;;;2.85;1.35;;;33.00;43.40;;;30.41;56.34;95697.97;4964338;28;20042;-72
2023/07/12 09:49:14;;;;;;;6.78;3.42;;;32.80;43.10;;;30.48;57.58;95715.34;4985277;28;20057;-70
2023/07/12 09:52:04;;;;;;;3.25;1.55;;;32.90;44.30;;;30.51;54.79;95710.38;4982008;28;20035;-70
2023/07/12 09:55:08;;;;;;;13.70;12.20;;;32.70;42.90;;;30.60;54.53;95694.88;4993611;28;20042;-69
2023/07/12 09:58:28;;;;;;;3.78;1.55;;;32.90;42.90;;;30.67;53.00;95692.47;4994594;28;20022;-69
2023/07/12 10:01:27;;;;;;;2.30;1.30;;;32.90;41.90;;;30.75;53.67;95688.91;4981911;28;20537;-69
2023/07/12 10:03:54;;;;;;;;;;;33.10;41.90;;;30.88;53.46;95701.44;4975799;28;20038;-69
2023/07/12 10:06:34;;;;;;;6.60;1.60;;;33.40;41.50;;;31.01;51.75;95689.56;4979571;28;19914;-70
2023/07/12 10:09:20;;;;;;;3.45;1.27;;;33.60;40.70;;;31.16;52.39;95679.22;5002104;28;20066;-70
2023/07/12 10:12:24;;;;;;;5.15;1.77;;;33.70;40.40;;;31.28;50.45;95692.94;4998305;28;20046;-70
2023/07/12 10:14:51;;;;;;;7.63;1.40;;;33.90;40.30;;;31.30;54.44;95707.78;4998738;28;20058;-69
2023/07/12 10:17:39;;;;;;;6.55;1.73;;;33.60;41.20;;;31.45;52.47;95709.06;4981105;28;20421;-70